Terminal Aerodrome Forecast
Issued by NWS Northern Indiana

Home | Current Version | Previous Version | Graphics & Text | Print | Product List | Glossary Off
Versions: 1 2 3 4 5 6 7 8 9 10 11 12 13 14 15 16

000
FTUS43 KIWX 310500
TAFFWA
TAF
KFWA 310520Z 3106/0106 VRB02KT P6SM FEW050 SCT100
      TEMPO 3108/3111 5SM BR
     FM311500 26008KT P6SM SCT050
     FM010100 VRB02KT P6SM SCT050=

USA.gov is the U.S. government's official web portal to all federal, state and local government web resources and services.